Time;durP1;ratioP1;P1;durP2;ratioP2;P2;SDS_P1;SDS_P2;PMS_P1;PMS_P2;Temp;Humidity;BMP_temperature;BMP_pressure;BME280_temperature;BME280_humidity;BME280_pressure;Samples;Min_cycle;Max_cycle;Signal;HPM_P1;HPM_P2
2023/10/11 00:01:02;;;;;;;7.53;5.18;;;16.80;95.20;;;;;;5048510;28;20425;-70
2023/10/11 00:03:35;;;;;;;5.95;4.68;;;16.80;95.10;;;;;;5058976;28;20484;-70
2023/10/11 00:06:04;;;;;;;8.00;4.70;;;16.80;95.10;;;;;;5041583;28;20423;-71
2023/10/11 00:08:39;;;;;;;5.78;4.40;;;16.80;95.30;;;;;;5049542;28;20443;-70
2023/10/11 00:11:08;;;;;;;6.90;4.80;;;16.80;95.30;;;;;;5046624;28;20444;-70
2023/10/11 00:13:35;;;;;;;5.30;4.68;;;16.80;95.10;;;;;;5054584;28;20493;-70
2023/10/11 00:16:07;;;;;;;6.88;4.32;;;16.70;95.50;;;;;;5056103;28;20494;-70
2023/10/11 00:18:34;;;;;;;8.27;4.88;;;16.70;95.60;;;;;;5057420;28;20429;-70
2023/10/11 00:21:09;;;;;;;6.45;4.70;;;16.70;95.80;;;;;;5056902;28;20426;-69
2023/10/11 00:23:36;;;;;;;7.00;5.00;;;16.70;96.20;;;;;;5050825;28;20419;-70
2023/10/11 00:26:03;;;;;;;7.05;4.78;;;16.70;96.30;;;;;;5051812;28;20459;-71
2023/10/11 00:28:32;;;;;;;6.78;4.70;;;16.60;96.30;;;;;;5056516;28;20408;-71
2023/10/11 00:31:00;;;;;;;6.28;4.72;;;16.60;96.30;;;;;;5047839;28;20879;-71
2023/10/11 00:33:27;;;;;;;6.55;5.03;;;16.60;96.30;;;;;;5053167;28;20536;-70
2023/10/11 00:35:55;;;;;;;6.18;5.57;;;16.60;96.50;;;;;;5049331;28;20542;-70
2023/10/11 00:38:27;;;;;;;7.55;5.15;;;16.60;96.60;;;;;;5050036;28;20452;-70
2023/10/11 00:41:07;;;;;;;6.82;4.55;;;16.50;96.60;;;;;;5043447;28;20516;-70
2023/10/11 00:43:36;;;;;;;5.80;4.47;;;16.40;96.30;;;;;;5051542;28;20432;-70
2023/10/11 00:46:08;;;;;;;5.80;4.73;;;16.40;96.70;;;;;;5056853;28;20805;-70
2023/10/11 00:48:36;;;;;;;5.85;5.03;;;16.40;97.10;;;;;;5038172;28;20443;-70
2023/10/11 00:51:03;;;;;;;6.60;4.68;;;16.30;97.10;;;;;;5053569;28;20440;-70
2023/10/11 00:53:34;;;;;;;6.00;4.55;;;16.40;97.30;;;;;;5049128;28;20433;-70
2023/10/11 00:56:03;;;;;;;7.30;5.00;;;16.40;97.30;;;;;;5065279;28;21019;-70
2023/10/11 00:58:30;;;;;;;6.90;4.80;;;16.40;97.50;;;;;;5045632;28;20420;-70
2023/10/11 01:01:00;;;;;;;7.85;4.95;;;16.30;97.40;;;;;;5042961;28;20429;-69
2023/10/11 01:03:31;;;;;;;6.15;4.53;;;16.30;97.40;;;;;;5051223;28;20442;-70
2023/10/11 01:05:59;;;;;;;9.50;5.18;;;16.20;97.40;;;;;;5050049;28;20556;-70
2023/10/11 01:08:26;;;;;;;7.20;4.90;;;16.30;97.70;;;;;;5049913;28;20826;-70
2023/10/11 01:10:53;;;;;;;6.75;4.55;;;16.30;97.80;;;;;;5050337;28;20441;-70
2023/10/11 01:13:20;;;;;;;6.43;4.83;;;16.30;97.80;;;;;;5048572;28;20433;-70
2023/10/11 01:15:47;;;;;;;5.30;4.30;;;16.20;97.40;;;;;;5047423;28;20846;-70
2023/10/11 01:18:15;;;;;;;6.80;4.88;;;16.20;97.20;;;;;;5054271;28;20433;-70
2023/10/11 01:20:43;;;;;;;7.00;4.90;;;16.20;97.80;;;;;;5050325;28;20432;-69
2023/10/11 01:23:10;;;;;;;6.07;4.53;;;16.10;98.20;;;;;;5046152;28;20503;-69
2023/10/11 01:25:37;;;;;;;5.30;4.80;;;16.10;98.10;;;;;;5051651;28;20450;-69
2023/10/11 01:28:04;;;;;;;5.65;4.82;;;16.00;98.30;;;;;;5057737;28;20420;-70
2023/10/11 01:30:30;;;;;;;6.70;4.60;;;16.00;98.50;;;;;;5059989;28;20435;-70
2023/10/11 01:32:57;;;;;;;6.95;4.68;;;16.00;98.40;;;;;;5054290;28;20429;-70
2023/10/11 01:35:30;;;;;;;6.30;4.70;;;15.90;98.30;;;;;;5049218;28;20437;-70
2023/10/11 01:38:05;;;;;;;7.18;5.22;;;15.90;98.50;;;;;;5053086;28;20432;-70
2023/10/11 01:40:33;;;;;;;6.75;5.13;;;15.80;98.60;;;;;;5062622;28;20496;-70
2023/10/11 01:43:00;;;;;;;6.25;4.70;;;15.80;98.80;;;;;;5056585;28;20415;-70
2023/10/11 01:45:27;;;;;;;7.30;5.10;;;15.80;98.90;;;;;;5055019;28;21112;-70
2023/10/11 01:47:56;;;;;;;6.50;4.95;;;15.80;99.50;;;;;;5042884;28;20422;-70
2023/10/11 01:50:24;;;;;;;8.25;5.07;;;15.70;99.90;;;;;;5059496;28;20420;-70
2023/10/11 01:52:51;;;;;;;6.93;5.07;;;15.70;99.90;;;;;;5041312;28;20423;-70
2023/10/11 01:55:20;;;;;;;8.18;5.13;;;15.70;99.90;;;;;;5052172;28;20441;-71
2023/10/11 01:57:48;;;;;;;6.47;4.87;;;15.70;99.90;;;;;;5063735;28;20453;-71
2023/10/11 02:00:16;;;;;;;6.38;5.18;;;15.70;99.90;;;;;;5049827;28;20425;-70
2023/10/11 02:02:47;;;;;;;6.05;4.75;;;15.60;99.90;;;;;;5051808;28;20449;-69
2023/10/11 02:05:15;;;;;;;7.15;5.32;;;15.60;99.90;;;;;;5042499;28;20433;-70
2023/10/11 02:07:42;;;;;;;7.35;5.47;;;15.60;99.90;;;;;;5052468;28;20445;-70
2023/10/11 02:10:12;;;;;;;6.20;5.20;;;15.60;99.90;;;;;;5054927;28;20435;-70
2023/10/11 02:12:44;;;;;;;10.02;6.07;;;15.60;99.90;;;;;;5050003;28;20489;-70
2023/10/11 02:15:12;;;;;;;6.88;5.55;;;15.50;99.90;;;;;;5055138;28;20409;-70
2023/10/11 02:17:39;;;;;;;7.20;5.28;;;15.50;99.90;;;;;;5059584;28;20427;-71
2023/10/11 02:20:13;;;;;;;6.30;5.15;;;15.50;99.90;;;;;;5049639;28;20994;-71
2023/10/11 02:22:44;;;;;;;8.13;5.80;;;15.50;99.90;;;;;;5040255;28;20441;-71
2023/10/11 02:25:15;;;;;;;7.70;5.07;;;15.40;99.90;;;;;;5056037;28;20514;-71
2023/10/11 02:27:43;;;;;;;6.50;5.30;;;15.40;99.90;;;;;;5049721;28;20423;-71
2023/10/11 02:30:13;;;;;;;8.70;5.40;;;15.40;99.90;;;;;;5051707;28;21277;-71
2023/10/11 02:32:41;;;;;;;7.47;5.22;;;15.40;99.90;;;;;;5045367;28;20412;-70
2023/10/11 02:35:12;;;;;;;6.97;5.10;;;15.40;99.90;;;;;;5046544;28;20433;-69
2023/10/11 02:37:39;;;;;;;8.90;5.10;;;15.40;99.90;;;;;;5042817;28;20872;-70
2023/10/11 02:40:08;;;;;;;8.40;5.90;;;15.30;99.90;;;;;;5048195;28;21075;-70
2023/10/11 02:42:36;;;;;;;6.05;5.00;;;15.30;99.90;;;;;;5033694;28;20469;-71
2023/10/11 02:45:07;;;;;;;6.10;5.50;;;15.30;99.90;;;;;;5056729;28;20455;-70
2023/10/11 02:47:35;;;;;;;7.90;5.40;;;15.30;99.90;;;;;;5052499;28;20427;-70
2023/10/11 02:50:06;;;;;;;7.43;5.30;;;15.20;99.90;;;;;;5050869;28;20433;-71
2023/10/11 02:52:36;;;;;;;7.47;5.57;;;15.20;99.90;;;;;;5048830;28;20456;-71
2023/10/11 02:55:12;;;;;;;7.10;5.43;;;15.30;99.90;;;;;;5052417;28;20513;-71
2023/10/11 02:57:40;;;;;;;8.10;5.45;;;15.20;99.90;;;;;;5051150;28;20414;-71
2023/10/11 03:00:21;;;;;;;7.00;5.40;;;15.20;99.90;;;;;;5045844;28;20553;-71
2023/10/11 03:02:53;;;;;;;8.65;5.78;;;15.20;99.90;;;;;;5042811;28;20718;-71
2023/10/11 03:05:26;;;;;;;6.22;5.28;;;15.20;99.90;;;;;;5057357;28;20413;-71
2023/10/11 03:07:54;;;;;;;8.05;5.70;;;15.10;99.90;;;;;;5053427;28;20523;-71
2023/10/11 03:10:23;;;;;;;7.55;5.10;;;15.10;99.90;;;;;;5094579;22;20714;-77
2023/10/11 03:12:51;;;;;;;7.88;5.38;;;15.10;99.90;;;;;;5080124;28;20426;-76
2023/10/11 03:15:20;;;;;;;7.55;5.80;;;15.10;99.90;;;;;;5072719;28;20871;-76
2023/10/11 03:17:52;;;;;;;9.10;5.80;;;15.00;99.90;;;;;;5073626;28;20504;-76
2023/10/11 03:20:28;;;;;;;6.50;4.97;;;15.10;99.90;;;;;;5078265;28;20607;-76
2023/10/11 03:22:59;;;;;;;7.70;4.90;;;15.00;99.90;;;;;;5076709;28;20434;-76
2023/10/11 03:25:29;;;;;;;7.53;5.40;;;15.00;99.90;;;;;;5070379;28;20888;-76
2023/10/11 03:27:55;;;;;;;6.88;5.60;;;15.00;99.90;;;;;;5069984;28;20949;-76
2023/10/11 03:30:24;;;;;;;7.15;5.28;;;15.00;99.90;;;;;;5081564;28;20442;-76
2023/10/11 03:32:51;;;;;;;7.13;5.10;;;15.00;99.90;;;;;;5073057;28;20441;-76
2023/10/11 03:35:19;;;;;;;7.38;5.72;;;14.90;99.90;;;;;;5078569;28;20433;-76
2023/10/11 03:37:57;;;;;;;8.52;5.68;;;14.90;99.90;;;;;;5072578;28;20426;-76
2023/10/11 03:40:34;;;;;;;7.93;5.50;;;14.90;99.90;;;;;;5068765;28;20416;-77
2023/10/11 03:43:11;;;;;;;8.00;5.68;;;14.90;99.90;;;;;;5072188;28;20746;-76
2023/10/11 03:45:39;;;;;;;9.43;5.47;;;14.80;99.90;;;;;;5071628;28;21004;-76
2023/10/11 03:48:09;;;;;;;7.18;5.63;;;14.80;99.90;;;;;;5075735;28;20435;-76
2023/10/11 03:50:37;;;;;;;6.82;5.57;;;14.80;99.90;;;;;;5074699;28;20428;-75
2023/10/11 03:53:10;;;;;;;7.60;6.10;;;14.80;99.90;;;;;;5079224;28;20532;-76
2023/10/11 03:55:45;;;;;;;9.05;5.97;;;14.80;99.90;;;;;;5079146;28;20484;-75
2023/10/11 03:58:12;;;;;;;6.78;5.65;;;14.80;99.90;;;;;;5077364;28;20432;-75
2023/10/11 04:00:46;;;;;;;8.63;5.45;;;14.80;99.90;;;;;;5075395;28;20429;-75
2023/10/11 04:03:14;;;;;;;7.45;5.40;;;14.80;99.90;;;;;;5077822;28;20461;-77
2023/10/11 04:05:41;;;;;;;6.93;5.22;;;14.80;99.90;;;;;;5072906;28;20422;-77
2023/10/11 04:08:11;;;;;;;7.25;5.38;;;14.80;99.90;;;;;;5079292;28;20441;-75
2023/10/11 04:10:39;;;;;;;6.85;5.45;;;14.80;99.90;;;;;;5083463;28;20406;-75
2023/10/11 04:13:09;;;;;;;8.85;5.95;;;14.80;99.90;;;;;;5086161;28;20453;-76
2023/10/11 04:15:40;;;;;;;7.75;5.55;;;14.80;99.90;;;;;;5079028;28;20825;-77
2023/10/11 04:18:14;;;;;;;7.38;5.78;;;14.80;99.90;;;;;;5085988;28;20487;-75
2023/10/11 04:20:50;;;;;;;9.40;6.00;;;14.80;99.90;;;;;;5075951;28;20511;-77
2023/10/11 04:23:24;;;;;;;8.93;6.20;;;14.80;99.90;;;;;;5083177;28;20461;-77
2023/10/11 04:25:51;;;;;;;9.00;5.87;;;14.80;99.90;;;;;;5085767;28;20782;-76
2023/10/11 04:28:16;;;;;;;8.90;5.73;;;14.70;99.90;;;;;;5083435;28;20448;-77
2023/10/11 04:30:43;;;;;;;6.70;5.30;;;14.70;99.90;;;;;;5084258;28;20422;-77
2023/10/11 04:33:11;;;;;;;8.65;5.78;;;14.70;99.90;;;;;;5083710;28;20465;-74
2023/10/11 04:35:42;;;;;;;9.40;6.00;;;14.70;99.90;;;;;;5084094;28;20532;-75
2023/10/11 04:38:11;;;;;;;8.90;5.95;;;14.70;99.90;;;;;;5080623;28;20780;-76
2023/10/11 04:40:49;;;;;;;7.43;5.50;;;14.70;99.90;;;;;;5078795;28;20422;-77
2023/10/11 04:43:24;;;;;;;7.65;6.03;;;14.60;99.90;;;;;;5080920;28;20745;-75
2023/10/11 04:45:51;;;;;;;7.93;5.90;;;14.70;99.90;;;;;;5081857;28;20474;-75
2023/10/11 04:48:29;;;;;;;8.50;5.90;;;14.60;99.90;;;;;;5086569;28;20414;-77
2023/10/11 04:51:04;;;;;;;9.35;5.57;;;14.70;99.90;;;;;;5077950;28;20696;-75
2023/10/11 04:53:33;;;;;;;8.65;5.53;;;14.60;99.90;;;;;;5078896;28;20432;-75
2023/10/11 04:56:02;;;;;;;10.65;6.03;;;14.60;99.90;;;;;;5088715;28;20511;-75
2023/10/11 04:58:40;;;;;;;8.20;5.50;;;14.60;99.90;;;;;;5083000;28;20853;-75
2023/10/11 05:01:08;;;;;;;7.53;6.00;;;14.60;99.90;;;;;;5084257;28;20996;-75
2023/10/11 05:03:38;;;;;;;8.50;5.43;;;14.60;99.90;;;;;;5083123;28;20911;-75
2023/10/11 05:06:13;;;;;;;8.35;5.80;;;14.70;99.90;;;;;;5083996;28;20453;-76
2023/10/11 05:08:54;;;;;;;10.05;5.07;;;14.70;99.90;;;;;;5082960;28;20433;-76
2023/10/11 05:11:35;;;;;;;6.93;5.18;;;14.70;99.90;;;;;;5081092;28;20433;-76
2023/10/11 05:14:10;;;;;;;9.23;5.55;;;14.60;99.90;;;;;;5085034;28;20425;-77
2023/10/11 05:16:44;;;;;;;8.82;5.75;;;14.70;99.90;;;;;;5080913;28;20863;-77
2023/10/11 05:19:15;;;;;;;6.35;4.90;;;14.70;99.90;;;;;;5084368;28;20482;-77
2023/10/11 05:21:43;;;;;;;11.75;5.53;;;14.60;99.90;;;;;;5082355;28;20418;-76
2023/10/11 05:24:29;;;;;;;7.85;5.45;;;14.60;99.90;;;;;;5082283;28;20624;-78
2023/10/11 05:27:04;;;;;;;10.82;5.72;;;14.60;99.90;;;;;;5077839;28;20469;-77
2023/10/11 05:29:36;;;;;;;8.07;5.40;;;14.60;99.90;;;;;;5083982;28;20939;-75
2023/10/11 05:32:20;;;;;;;8.70;5.70;;;14.70;99.90;;;;;;5081620;28;20442;-77
2023/10/11 05:34:51;;;;;;;7.73;5.80;;;14.70;99.90;;;;;;5081164;28;20480;-77
2023/10/11 05:51:03;;;;;;;7.32;5.80;;;14.70;99.90;;;;;;5075894;28;20953;-75
2023/10/11 05:53:30;;;;;;;8.02;5.40;;;14.70;99.90;;;;;;5082707;28;20524;-75
2023/10/11 05:55:57;;;;;;;10.27;5.53;;;14.70;99.90;;;;;;5082573;28;20810;-75
2023/10/11 05:58:24;;;;;;;7.30;5.60;;;14.70;99.90;;;;;;5082590;28;20436;-75
2023/10/11 06:00:54;;;;;;;7.50;5.68;;;14.70;99.90;;;;;;5083020;28;20802;-75
2023/10/11 06:03:24;;;;;;;9.18;5.18;;;14.70;99.90;;;;;;5081152;28;20445;-78
2023/10/11 06:05:52;;;;;;;9.13;6.40;;;14.70;99.90;;;;;;5083710;28;20787;-78
2023/10/11 06:08:23;;;;;;;8.40;5.50;;;14.70;99.90;;;;;;5088953;28;20898;-81
2023/10/11 06:10:55;;;;;;;6.88;5.20;;;14.70;99.90;;;;;;5095403;28;20505;-81
2023/10/11 06:13:21;;;;;;;7.90;5.90;;;14.70;99.90;;;;;;5102043;28;20500;-81
2023/10/11 06:15:58;;;;;;;7.40;5.57;;;14.70;99.90;;;;;;5096653;28;20833;-79
2023/10/11 06:18:39;;;;;;;7.83;5.57;;;14.80;99.90;;;;;;5089036;28;20447;-78
2023/10/11 06:21:06;;;;;;;7.13;4.93;;;14.80;99.90;;;;;;5088429;28;20486;-79
2023/10/11 06:23:38;;;;;;;7.93;5.70;;;14.80;99.90;;;;;;5092483;28;20505;-78
2023/10/11 06:26:28;;;;;;;8.10;5.70;;;14.80;99.90;;;;;;5093689;28;20489;-79
2023/10/11 06:29:02;;;;;;;8.57;5.75;;;14.90;99.90;;;;;;5084597;28;20516;-79
2023/10/11 06:31:33;;;;;;;7.53;5.13;;;14.90;99.90;;;;;;5088788;28;20717;-79
2023/10/11 06:34:03;;;;;;;7.50;5.10;;;14.90;99.90;;;;;;5086521;28;20872;-78
2023/10/11 06:36:34;;;;;;;8.07;5.10;;;14.90;99.90;;;;;;5088173;28;20443;-79
2023/10/11 06:39:19;;;;;;;7.13;5.55;;;15.00;99.90;;;;;;5084702;28;20880;-79
2023/10/11 06:41:50;;;;;;;9.18;5.68;;;15.00;99.90;;;;;;5080311;28;20425;-78
2023/10/11 06:44:18;;;;;;;7.60;5.60;;;15.10;99.90;;;;;;5087169;28;20430;-79
2023/10/11 06:46:47;;;;;;;7.32;5.60;;;15.10;99.90;;;;;;5088071;28;20414;-78
2023/10/11 06:49:14;;;;;;;8.70;5.68;;;15.10;99.90;;;;;;5089978;28;20417;-79
2023/10/11 06:51:41;;;;;;;7.20;4.93;;;15.20;99.90;;;;;;5088918;28;20773;-79
2023/10/11 06:54:11;;;;;;;8.45;5.07;;;15.20;99.90;;;;;;5085997;28;20941;-78
2023/10/11 06:56:40;;;;;;;6.70;5.10;;;15.30;99.90;;;;;;5088093;28;20562;-78
2023/10/11 06:59:07;;;;;;;10.38;5.80;;;15.30;99.90;;;;;;5089181;28;20784;-80
2023/10/11 07:01:35;;;;;;;10.55;5.50;;;15.30;99.90;;;;;;5087131;28;20438;-81
2023/10/11 07:04:02;;;;;;;8.80;5.72;;;15.40;99.90;;;;;;5087352;28;20557;-80
2023/10/11 07:06:30;;;;;;;9.30;5.47;;;15.50;99.90;;;;;;5089580;28;20894;-81
2023/10/11 07:08:58;;;;;;;8.32;5.30;;;15.50;99.90;;;;;;5097743;28;20422;-79
2023/10/11 07:11:40;;;;;;;6.60;5.20;;;15.60;99.90;;;;;;5089518;28;20464;-80
2023/10/11 07:14:14;;;;;;;7.43;5.20;;;15.60;99.90;;;;;;5090650;28;20570;-80
2023/10/11 07:16:44;;;;;;;7.22;5.20;;;15.70;99.90;;;;;;5089377;28;20422;-79
2023/10/11 07:19:15;;;;;;;7.15;5.00;;;15.70;99.90;;;;;;5088950;28;20529;-80
2023/10/11 07:21:52;;;;;;;7.65;5.85;;;15.80;99.90;;;;;;5086900;28;20475;-80
2023/10/11 07:24:38;;;;;;;10.25;5.50;;;15.90;99.30;;;;;;5085539;28;20418;-81
2023/10/11 07:27:08;;;;;;;8.13;5.50;;;16.10;98.50;;;;;;5085064;28;20425;-80
2023/10/11 07:29:36;;;;;;;10.57;6.17;;;16.20;98.10;;;;;;5086857;28;20440;-79
2023/10/11 07:32:03;;;;;;;10.05;5.63;;;16.30;97.70;;;;;;5092962;28;20502;-79
2023/10/11 07:34:31;;;;;;;10.80;4.97;;;16.40;97.00;;;;;;5091872;28;20426;-81
2023/10/11 07:37:03;;;;;;;7.57;4.80;;;16.50;96.70;;;;;;5095600;28;20436;-81
2023/10/11 07:39:33;;;;;;;7.55;5.28;;;16.60;96.40;;;;;;5091610;28;20849;-81
2023/10/11 07:42:08;;;;;;;8.63;5.10;;;16.70;96.00;;;;;;5097391;28;20430;-81
2023/10/11 07:44:37;;;;;;;8.90;5.30;;;16.80;95.70;;;;;;5100771;28;20484;-81
2023/10/11 07:47:06;;;;;;;8.15;5.13;;;16.90;95.60;;;;;;5102580;28;20405;-80
2023/10/11 07:49:38;;;;;;;8.07;5.30;;;17.00;95.00;;;;;;5101553;28;20431;-81
2023/10/11 07:52:08;;;;;;;7.47;4.80;;;17.10;94.90;;;;;;5094288;28;20465;-80
2023/10/11 07:54:35;;;;;;;9.87;4.87;;;17.30;94.40;;;;;;5091581;28;20451;-79
2023/10/11 07:57:04;;;;;;;7.80;5.15;;;17.40;94.10;;;;;;5093730;28;20809;-80
2023/10/11 07:59:31;;;;;;;8.40;5.18;;;17.60;93.60;;;;;;5084864;28;20424;-83
2023/10/11 08:02:07;;;;;;;8.07;5.10;;;17.70;93.00;;;;;;5090942;28;20413;-78
2023/10/11 08:04:36;;;;;;;7.72;4.70;;;17.90;92.60;;;;;;5089802;28;20433;-78
2023/10/11 08:07:04;;;;;;;7.82;4.50;;;18.00;92.80;;;;;;5088542;28;20904;-79
2023/10/11 08:09:45;;;;;;;7.32;4.78;;;18.20;92.30;;;;;;5083730;28;20828;-80
2023/10/11 08:12:13;;;;;;;7.03;4.78;;;18.40;91.90;;;;;;5091155;28;20891;-79
2023/10/11 08:14:44;;;;;;;8.82;4.95;;;18.60;91.30;;;;;;5088259;28;20486;-81
2023/10/11 08:17:13;;;;;;;9.02;4.88;;;18.70;90.70;;;;;;5093142;28;20429;-81
2023/10/11 08:19:44;;;;;;;7.32;4.50;;;18.90;90.60;;;;;;5093438;28;20416;-79
2023/10/11 08:22:14;;;;;;;8.73;5.00;;;19.10;89.70;;;;;;5079122;28;20550;-80
2023/10/11 08:24:46;;;;;;;8.25;4.40;;;19.20;89.30;;;;;;5091980;28;20425;-79
2023/10/11 08:27:14;;;;;;;7.63;4.60;;;19.50;88.00;;;;;;5093625;28;20880;-80
2023/10/11 08:29:42;;;;;;;7.70;4.53;;;19.60;87.00;;;;;;5093187;28;20688;-78
2023/10/11 08:32:13;;;;;;;7.20;4.45;;;19.90;84.90;;;;;;5085219;28;20445;-78
2023/10/11 08:34:46;;;;;;;7.30;4.50;;;20.00;82.90;;;;;;5090400;28;20483;-78
2023/10/11 08:37:14;;;;;;;6.50;4.40;;;20.00;83.00;;;;;;5086625;28;20425;-78
2023/10/11 08:39:44;;;;;;;7.20;4.70;;;20.10;81.60;;;;;;5085274;28;20545;-79
2023/10/11 08:42:14;;;;;;;8.90;4.60;;;20.20;80.30;;;;;;5081077;28;20491;-79
2023/10/11 08:44:44;;;;;;;7.80;5.25;;;20.10;79.90;;;;;;5090898;28;20442;-79
2023/10/11 08:47:16;;;;;;;8.85;4.32;;;20.20;80.00;;;;;;5086580;28;20440;-79
2023/10/11 08:49:48;;;;;;;7.85;4.25;;;20.30;79.30;;;;;;5092422;28;20431;-81
2023/10/11 08:52:19;;;;;;;8.02;4.00;;;20.40;79.00;;;;;;5091610;28;21018;-79
2023/10/11 08:54:49;;;;;;;7.45;4.50;;;20.50;78.20;;;;;;5080775;28;20411;-78
2023/10/11 08:57:16;;;;;;;6.67;4.03;;;20.60;78.10;;;;;;5088747;28;20471;-80
2023/10/11 08:59:50;;;;;;;7.60;4.15;;;20.70;78.40;;;;;;5085984;28;20441;-79
2023/10/11 09:02:17;;;;;;;5.80;4.20;;;20.90;76.70;;;;;;5087930;28;20447;-80
2023/10/11 09:04:59;;;;;;;5.20;3.85;;;21.10;75.70;;;;;;5091598;28;20532;-79
2023/10/11 09:07:38;;;;;;;7.00;4.20;;;21.30;74.50;;;;;;5091605;28;20425;-79
2023/10/11 09:10:21;;;;;;;8.23;4.70;;;21.50;74.20;;;;;;5087348;28;21061;-78
2023/10/11 09:12:49;;;;;;;7.50;4.60;;;21.70;73.70;;;;;;5081783;28;20422;-77
2023/10/11 09:15:16;;;;;;;5.30;3.80;;;22.00;71.00;;;;;;5084280;28;20515;-79
2023/10/11 09:17:45;;;;;;;6.20;4.00;;;22.10;69.30;;;;;;5081588;28;20857;-80
2023/10/11 09:20:23;;;;;;;9.40;4.20;;;22.20;69.10;;;;;;5084087;28;20446;-80
2023/10/11 09:22:52;;;;;;;7.90;3.80;;;22.50;67.50;;;;;;5084960;28;20429;-78
2023/10/11 09:25:22;;;;;;;8.55;3.92;;;22.60;67.90;;;;;;5098303;28;20490;-80
2023/10/11 09:27:50;;;;;;;6.07;3.80;;;22.80;65.50;;;;;;5101404;28;20910;-79
2023/10/11 09:30:20;;;;;;;6.03;3.83;;;22.90;65.20;;;;;;5093470;28;20510;-80
2023/10/11 09:32:49;;;;;;;7.85;4.00;;;23.10;64.80;;;;;;5088307;28;20462;-80
2023/10/11 09:35:23;;;;;;;7.88;5.07;;;23.20;64.40;;;;;;5086225;28;20521;-81
2023/10/11 09:37:52;;;;;;;7.45;3.78;;;23.40;63.90;;;;;;5087099;28;20429;-81
2023/10/11 09:40:19;;;;;;;7.10;3.45;;;23.50;61.80;;;;;;5087223;28;20425;-79
2023/10/11 09:42:51;;;;;;;5.18;3.70;;;23.60;61.30;;;;;;5085513;28;20517;-78
2023/10/11 09:45:19;;;;;;;7.32;3.95;;;23.90;59.80;;;;;;5087825;28;20421;-78
2023/10/11 09:47:54;;;;;;;5.13;3.60;;;23.90;58.10;;;;;;5087670;28;20429;-79
2023/10/11 09:50:23;;;;;;;8.07;4.30;;;23.90;59.20;;;;;;5084108;28;20444;-79
2023/10/11 09:52:53;;;;;;;7.10;4.10;;;24.10;59.80;;;;;;5081320;28;20488;-79
2023/10/11 09:55:31;;;;;;;7.05;4.00;;;24.30;57.70;;;;;;5081164;28;20436;-79
2023/10/11 09:58:03;;;;;;;7.05;3.65;;;24.40;56.10;;;;;;5085606;28;20604;-78
2023/10/11 10:00:40;;;;;;;8.10;4.20;;;24.50;56.30;;;;;;5087139;28;20414;-77
2023/10/11 10:03:12;;;;;;;7.38;3.60;;;24.60;52.50;;;;;;5085897;28;20486;-78
2023/10/11 10:06:10;;;;;;;6.00;3.60;;;24.70;52.10;;;;;;5083761;28;20425;-78
2023/10/11 10:08:37;;;;;;;5.93;3.80;;;24.80;51.70;;;;;;5080149;28;20506;-78
2023/10/11 10:11:03;;;;;;;5.80;3.20;;;24.90;50.50;;;;;;5086203;28;20768;-78
2023/10/11 10:13:50;;;;;;;5.00;3.40;;;25.10;49.30;;;;;;5086398;28;20865;-78
2023/10/11 10:16:17;;;;;;;4.70;3.60;;;25.40;47.90;;;;;;5072672;28;20438;-81
2023/10/11 10:18:47;;;;;;;5.30;3.33;;;25.50;48.30;;;;;;5080394;28;20802;-75
2023/10/11 10:21:17;;;;;;;4.93;3.38;;;25.60;45.00;;;;;;5085139;28;20516;-79
2023/10/11 10:23:44;;;;;;;6.28;3.40;;;25.60;45.30;;;;;;5085317;28;20426;-79
2023/10/11 10:26:45;;;;;;;6.00;3.50;;;25.50;43.20;;;;;;5076398;28;20431;-75
2023/10/11 10:29:15;;;;;;;3.88;2.80;;;25.20;43.30;;;;;;5083852;28;20490;-79
2023/10/11 10:32:06;;;;;;;5.30;3.30;;;25.10;43.10;;;;;;5084144;28;20456;-81
2023/10/11 10:34:32;;;;;;;5.45;2.88;;;25.20;43.10;;;;;;5092515;28;20469;-79
2023/10/11 10:37:06;;;;;;;8.93;3.50;;;25.40;41.80;;;;;;5086884;28;20456;-79
2023/10/11 10:39:48;;;;;;;7.18;3.22;;;25.50;41.30;;;;;;5087430;28;21408;-81
2023/10/11 10:42:16;;;;;;;8.43;3.20;;;25.60;41.30;;;;;;5087002;28;20815;-80
2023/10/11 10:44:49;;;;;;;5.78;3.25;;;25.70;41.90;;;;;;5076924;28;20914;-81
2023/10/11 10:47:25;;;;;;;5.27;2.90;;;25.80;41.00;;;;;;5083777;28;20879;-79
2023/10/11 10:49:54;;;;;;;4.00;2.80;;;26.00;41.00;;;;;;5087474;28;20420;-78
2023/10/11 10:52:25;;;;;;;5.55;2.88;;;26.20;40.20;;;;;;5081009;28;20464;-79
2023/10/11 10:55:02;;;;;;;6.00;2.72;;;26.20;39.70;;;;;;5085509;28;20430;-80
2023/10/11 10:57:31;;;;;;;4.68;2.97;;;26.10;39.30;;;;;;5084654;28;20429;-77
2023/10/11 10:59:59;;;;;;;4.20;3.20;;;26.00;38.90;;;;;;5082818;28;20505;-81
2023/10/11 11:02:25;;;;;;;6.32;3.40;;;25.90;39.10;;;;;;5083495;28;20410;-75
2023/10/11 11:04:52;;;;;;;4.30;3.10;;;26.00;39.80;;;;;;5079458;28;20428;-79
2023/10/11 11:07:23;;;;;;;4.32;2.80;;;26.00;39.30;;;;;;5072908;28;20410;-80
2023/10/11 11:09:54;;;;;;;4.32;2.70;;;26.00;40.10;;;;;;5085561;28;20428;-74
2023/10/11 11:12:27;;;;;;;5.10;3.13;;;26.10;39.00;;;;;;5080176;28;20548;-79
2023/10/11 11:14:56;;;;;;;4.88;2.85;;;26.00;38.90;;;;;;5078982;28;20843;-79
2023/10/11 11:17:24;;;;;;;3.38;2.65;;;26.00;39.40;;;;;;5077511;28;20497;-80
2023/10/11 11:20:13;;;;;;;4.63;2.90;;;26.00;38.90;;;;;;5079433;28;20434;-81
2023/10/11 11:22:45;;;;;;;4.40;2.88;;;26.10;39.70;;;;;;5086888;28;20522;-73
2023/10/11 11:25:26;;;;;;;4.22;2.70;;;26.10;38.90;;;;;;5083635;28;20429;-76
2023/10/11 11:28:06;;;;;;;6.00;3.05;;;26.10;38.90;;;;;;5072835;28;20411;-76
2023/10/11 11:30:36;;;;;;;5.72;2.83;;;26.10;38.90;;;;;;5085542;28;20424;-79
2023/10/11 11:33:13;;;;;;;5.25;2.83;;;26.20;38.80;;;;;;5087423;28;20896;-81
2023/10/11 11:35:44;;;;;;;3.70;2.70;;;26.20;38.60;;;;;;5080849;28;20421;-79
2023/10/11 11:38:21;;;;;;;3.90;2.70;;;26.10;39.60;;;;;;5078724;28;20751;-79
2023/10/11 11:40:51;;;;;;;3.97;2.28;;;26.20;39.50;;;;;;5079511;28;20510;-82
2023/10/11 11:43:17;;;;;;;4.20;2.92;;;26.30;39.20;;;;;;5076100;28;20410;-75
2023/10/11 11:45:45;;;;;;;5.15;2.70;;;26.30;38.10;;;;;;5083496;28;20471;-79
2023/10/11 11:48:13;;;;;;;4.43;2.60;;;26.40;38.00;;;;;;5085674;28;20502;-82
2023/10/11 11:50:40;;;;;;;4.45;2.92;;;26.40;37.70;;;;;;5085207;28;20425;-80
2023/10/11 11:53:06;;;;;;;4.35;2.70;;;26.50;37.30;;;;;;5083206;28;20429;-79
2023/10/11 11:55:35;;;;;;;4.93;2.90;;;26.50;37.90;;;;;;5085333;28;20935;-78
2023/10/11 11:58:02;;;;;;;7.15;3.40;;;26.70;37.60;;;;;;5083502;28;20429;-79
2023/10/11 12:00:39;;;;;;;8.65;3.80;;;26.70;37.20;;;;;;5085431;28;20504;-80
2023/10/11 12:03:06;;;;;;;5.85;2.92;;;26.60;36.90;;;;;;5078852;28;20503;-80
2023/10/11 12:05:40;;;;;;;5.80;3.00;;;26.50;36.40;;;;;;5080380;28;20623;-79
2023/10/11 12:08:08;;;;;;;6.45;3.25;;;26.50;37.80;;;;;;5082672;28;20473;-79
2023/10/11 12:10:36;;;;;;;6.05;3.10;;;26.60;37.30;;;;;;5082378;28;20417;-73
2023/10/11 12:13:13;;;;;;;4.63;3.15;;;26.60;36.70;;;;;;5085628;28;20493;-78
2023/10/11 12:15:40;;;;;;;5.85;3.30;;;26.60;36.70;;;;;;5085589;28;20440;-80
2023/10/11 12:18:09;;;;;;;6.80;3.20;;;26.60;37.80;;;;;;5084169;28;20405;-78
2023/10/11 12:20:36;;;;;;;5.70;3.25;;;26.70;37.60;;;;;;5082736;28;20920;-78
2023/10/11 12:23:08;;;;;;;7.57;3.50;;;27.00;37.90;;;;;;5078364;28;20422;-79
2023/10/11 12:25:37;;;;;;;8.93;3.45;;;27.20;36.70;;;;;;5083818;28;20971;-79
2023/10/11 12:28:06;;;;;;;6.55;3.40;;;27.30;35.60;;;;;;5076375;28;20514;-79
2023/10/11 12:30:35;;;;;;;8.85;3.65;;;27.40;35.80;;;;;;5075981;28;20434;-78
2023/10/11 12:33:06;;;;;;;8.27;3.30;;;27.50;35.30;;;;;;5077612;28;20809;-78
2023/10/11 12:35:34;;;;;;;8.05;3.30;;;27.40;35.20;;;;;;5086571;28;20433;-79
2023/10/11 12:38:01;;;;;;;7.90;3.55;;;27.40;36.40;;;;;;5090709;28;20684;-77
2023/10/11 12:40:34;;;;;;;6.40;3.30;;;27.40;35.10;;;;;;5078801;28;20788;-77
2023/10/11 12:43:07;;;;;;;9.05;3.40;;;27.40;35.80;;;;;;5088761;28;20532;-79
2023/10/11 12:45:34;;;;;;;6.03;3.15;;;27.40;35.90;;;;;;5088044;28;20941;-78
2023/10/11 12:48:06;;;;;;;8.32;3.50;;;27.30;36.30;;;;;;5085033;28;20937;-78
2023/10/11 12:50:36;;;;;;;8.63;3.78;;;27.40;37.50;;;;;;5090004;28;20410;-79
2023/10/11 12:53:10;;;;;;;7.45;3.47;;;27.60;35.70;;;;;;5089034;28;20468;-79
2023/10/11 12:55:38;;;;;;;14.75;3.97;;;27.70;36.30;;;;;;5089944;28;20414;-78
2023/10/11 12:58:07;;;;;;;10.27;3.55;;;27.80;36.90;;;;;;5090013;28;20811;-79
2023/10/11 13:00:37;;;;;;;8.07;3.35;;;27.90;36.00;;;;;;5092497;28;20483;-79
2023/10/11 13:03:15;;;;;;;6.22;3.22;;;28.00;36.20;;;;;;5087909;28;20425;-77
2023/10/11 13:05:43;;;;;;;9.10;3.50;;;27.90;35.90;;;;;;5095195;28;20486;-79
2023/10/11 13:08:11;;;;;;;7.95;3.50;;;27.90;36.10;;;;;;5100689;28;20429;-78
2023/10/11 13:10:41;;;;;;;9.52;3.67;;;27.80;35.60;;;;;;5099505;28;20434;-79
2023/10/11 13:13:09;;;;;;;11.48;3.90;;;27.80;36.40;;;;;;5101566;28;20520;-80
2023/10/11 13:15:38;;;;;;;8.35;4.00;;;27.80;36.00;;;;;;5092488;28;20466;-80
2023/10/11 13:18:09;;;;;;;6.07;3.30;;;27.80;36.30;;;;;;5090656;28;20451;-79